Time;durP1;ratioP1;P1;durP2;ratioP2;P2;SDS_P1;SDS_P2;PMS_P1;PMS_P2;Temp;Humidity;BMP_temperature;BMP_pressure;BME280_temperature;BME280_humidity;BME280_pressure;Samples;Min_cycle;Max_cycle;Signal;HPM_P1;HPM_P2
2021/11/06 00:01:05;;;;;;;80.17;18.00;;;;;;;;;;5060729;28;20494;-95
2021/11/06 00:03:31;;;;;;;89.77;17.97;;;;;;;;;;5059962;28;20893;-95
2021/11/06 00:05:58;;;;;;;80.80;18.37;;;;;;;;;;5061060;28;20491;-95
2021/11/06 00:08:24;;;;;;;78.03;18.10;;;;;;;;;;5060533;28;20504;-95
2021/11/06 00:10:52;;;;;;;85.63;18.83;;;;;;;;;;5061696;28;20447;-95
2021/11/06 00:13:20;;;;;;;77.40;17.97;;;;;;;;;;5061683;28;20453;-96
2021/11/06 00:15:46;;;;;;;89.10;18.70;;;;;;;;;;5062416;28;20454;-94
2021/11/06 00:18:13;;;;;;;85.27;19.17;;;;;;;;;;5061381;28;20453;-95
2021/11/06 00:20:40;;;;;;;86.37;19.33;;;;;;;;;;5061237;28;20484;-94
2021/11/06 00:23:06;;;;;;;85.27;19.30;;;;;;;;;;5061735;28;20455;-93
2021/11/06 00:25:33;;;;;;;96.90;19.97;;;;;;;;;;5061406;28;20910;-93
2021/11/06 00:27:59;;;;;;;80.67;18.37;;;;;;;;;;5060150;28;20453;-94
2021/11/06 00:30:27;;;;;;;81.20;18.37;;;;;;;;;;5059473;28;20983;-93
2021/11/06 00:32:55;;;;;;;89.63;19.23;;;;;;;;;;5054686;28;20513;-94
2021/11/06 00:35:22;;;;;;;85.10;19.80;;;;;;;;;;5054041;28;20458;-94
2021/11/06 00:37:48;;;;;;;82.97;18.13;;;;;;;;;;5055007;28;20714;-93
2021/11/06 00:40:16;;;;;;;77.50;17.77;;;;;;;;;;5057414;28;20450;-96
2021/11/06 00:42:42;;;;;;;83.60;20.17;;;;;;;;;;5054056;28;20507;-96
2021/11/06 00:45:09;;;;;;;82.57;18.97;;;;;;;;;;5053413;28;20520;-95
2021/11/06 00:47:39;;;;;;;81.90;20.03;;;;;;;;;;5052830;28;20450;-95
2021/11/06 00:50:07;;;;;;;84.77;19.00;;;;;;;;;;5052985;28;20438;-95
2021/11/06 00:52:34;;;;;;;89.47;19.70;;;;;;;;;;5053650;28;20536;-94
2021/11/06 00:55:00;;;;;;;86.53;18.43;;;;;;;;;;5054656;28;20459;-94
2021/11/06 00:57:29;;;;;;;83.80;19.40;;;;;;;;;;5060514;28;20485;-95
2021/11/06 00:59:55;;;;;;;88.70;19.70;;;;;;;;;;5060403;28;20531;-95
2021/11/06 01:02:22;;;;;;;87.40;18.40;;;;;;;;;;5058891;28;20499;-96
2021/11/06 01:04:50;;;;;;;80.30;19.03;;;;;;;;;;5058942;28;20449;-95
2021/11/06 01:07:17;;;;;;;98.63;22.80;;;;;;;;;;5059620;28;21335;-94
2021/11/06 01:09:43;;;;;;;91.80;20.77;;;;;;;;;;5059105;28;20524;-96
2021/11/06 01:12:10;;;;;;;91.53;20.57;;;;;;;;;;5058576;28;20457;-96
2021/11/06 01:14:37;;;;;;;86.60;21.60;;;;;;;;;;5058358;28;20483;-95
2021/11/06 01:17:03;;;;;;;85.23;21.13;;;;;;;;;;5058833;28;20495;-95
2021/11/06 01:19:30;;;;;;;89.80;21.17;;;;;;;;;;5059225;28;20836;-94
2021/11/06 01:21:58;;;;;;;88.77;21.43;;;;;;;;;;5061342;28;20487;-96
2021/11/06 01:24:24;;;;;;;89.07;19.57;;;;;;;;;;5060387;28;20448;-96
2021/11/06 01:26:52;;;;;;;84.00;19.73;;;;;;;;;;5060439;28;20449;-95
2021/11/06 01:29:19;;;;;;;90.07;20.77;;;;;;;;;;5060529;28;20434;-96
2021/11/06 01:31:45;;;;;;;91.33;22.63;;;;;;;;;;5058499;28;20460;-93
2021/11/06 01:34:12;;;;;;;88.80;19.17;;;;;;;;;;5058722;28;20465;-95
2021/11/06 01:36:39;;;;;;;89.07;19.83;;;;;;;;;;5059230;28;20503;-94
2021/11/06 01:39:07;;;;;;;86.50;19.80;;;;;;;;;;5059218;28;20450;-93
2021/11/06 01:41:34;;;;;;;83.53;19.60;;;;;;;;;;5059725;28;20446;-95
2021/11/06 01:44:01;;;;;;;85.17;20.27;;;;;;;;;;5059644;28;20468;-95
2021/11/06 01:46:29;;;;;;;89.60;20.13;;;;;;;;;;5057746;28;20445;-94
2021/11/06 01:48:56;;;;;;;84.70;19.70;;;;;;;;;;5057076;28;20488;-95
2021/11/06 01:51:22;;;;;;;86.87;19.17;;;;;;;;;;5058631;28;20454;-96
2021/11/06 01:53:49;;;;;;;84.87;19.90;;;;;;;;;;5058907;28;20445;-96
2021/11/06 01:56:17;;;;;;;80.20;18.83;;;;;;;;;;5063068;28;20449;-96
2021/11/06 01:58:44;;;;;;;88.40;19.73;;;;;;;;;;5059282;28;20557;-96
2021/11/06 02:01:10;;;;;;;89.00;19.00;;;;;;;;;;5059120;28;20465;-92
2021/11/06 02:03:37;;;;;;;85.17;20.47;;;;;;;;;;5059183;28;20429;-92
2021/11/06 02:06:03;;;;;;;87.03;20.10;;;;;;;;;;5059072;28;20487;-93
2021/11/06 02:08:30;;;;;;;88.60;20.30;;;;;;;;;;5058942;28;20442;-93
2021/11/06 02:10:56;;;;;;;81.70;19.97;;;;;;;;;;5057554;28;20549;-92
2021/11/06 02:13:24;;;;;;;85.73;20.43;;;;;;;;;;5057375;28;20469;-94
2021/11/06 02:15:51;;;;;;;88.73;19.03;;;;;;;;;;5058214;28;20476;-93
2021/11/06 02:18:17;;;;;;;84.60;17.53;;;;;;;;;;5058186;28;20575;-93
2021/11/06 02:20:46;;;;;;;80.27;17.73;;;;;;;;;;5058808;28;20499;-96
2021/11/06 02:23:13;;;;;;;83.60;18.40;;;;;;;;;;5059654;28;20457;-94
2021/11/06 02:25:39;;;;;;;84.80;18.70;;;;;;;;;;5057899;28;20438;-94
2021/11/06 02:28:06;;;;;;;81.83;19.00;;;;;;;;;;5058242;28;20472;-96
2021/11/06 02:30:33;;;;;;;81.73;18.00;;;;;;;;;;5059346;28;20449;-96
2021/11/06 02:33:01;;;;;;;82.17;19.23;;;;;;;;;;5059196;28;20457;-95
2021/11/06 02:35:27;;;;;;;82.83;19.50;;;;;;;;;;5059337;28;20511;-96
2021/11/06 02:37:56;;;;;;;87.40;19.40;;;;;;;;;;5061134;28;20489;-96
2021/11/06 02:40:22;;;;;;;90.40;20.90;;;;;;;;;;5058865;28;20475;-93
2021/11/06 02:42:49;;;;;;;84.20;20.10;;;;;;;;;;5059232;28;20540;-94
2021/11/06 02:45:15;;;;;;;85.43;20.30;;;;;;;;;;5059903;28;20442;-94
2021/11/06 02:47:42;;;;;;;85.83;20.30;;;;;;;;;;5059874;28;20456;-96
2021/11/06 02:50:08;;;;;;;83.73;20.87;;;;;;;;;;5058166;28;20453;-96
2021/11/06 02:52:35;;;;;;;90.63;21.90;;;;;;;;;;5059608;28;20457;-94
2021/11/06 02:55:03;;;;;;;83.90;19.83;;;;;;;;;;5056497;28;20938;-96
2021/11/06 02:57:30;;;;;;;91.60;21.97;;;;;;;;;;5058175;28;20485;-94
2021/11/06 02:59:57;;;;;;;86.23;20.50;;;;;;;;;;5057116;28;20503;-96
2021/11/06 03:02:23;;;;;;;85.70;22.60;;;;;;;;;;5060288;28;20451;-96
2021/11/06 03:04:50;;;;;;;85.70;19.53;;;;;;;;;;5058119;28;20437;-96
2021/11/06 03:07:17;;;;;;;89.37;20.20;;;;;;;;;;5059864;28;20447;-95
2021/11/06 03:09:43;;;;;;;82.57;20.67;;;;;;;;;;5057427;28;20441;-93
2021/11/06 03:12:12;;;;;;;88.13;19.67;;;;;;;;;;5056504;28;21386;-95
2021/11/06 03:14:39;;;;;;;86.93;20.73;;;;;;;;;;5057495;28;20437;-94
2021/11/06 03:17:06;;;;;;;92.47;19.90;;;;;;;;;;5058917;28;20482;-95
2021/11/06 03:19:33;;;;;;;89.30;21.70;;;;;;;;;;5055732;28;20492;-92
2021/11/06 03:21:59;;;;;;;92.17;20.90;;;;;;;;;;5058091;28;20489;-93
2021/11/06 03:24:26;;;;;;;84.40;20.10;;;;;;;;;;5058057;28;20496;-93
2021/11/06 03:26:52;;;;;;;86.73;20.97;;;;;;;;;;5057286;28;20460;-94
2021/11/06 03:29:20;;;;;;;86.20;21.43;;;;;;;;;;5057456;28;21045;-93
2021/11/06 03:31:47;;;;;;;95.20;23.30;;;;;;;;;;5057778;28;20450;-94
2021/11/06 03:34:13;;;;;;;94.00;25.60;;;;;;;;;;5058404;28;20450;-95
2021/11/06 03:36:40;;;;;;;98.20;27.57;;;;;;;;;;5058028;28;20476;-93
2021/11/06 03:39:07;;;;;;;95.70;25.10;;;;;;;;;;5057799;28;20493;-92
2021/11/06 03:41:33;;;;;;;88.00;21.57;;;;;;;;;;5055834;28;21379;-91
2021/11/06 03:44:00;;;;;;;81.10;20.93;;;;;;;;;;5056334;28;20434;-92
2021/11/06 03:46:28;;;;;;;88.53;21.40;;;;;;;;;;5057781;28;20433;-92
2021/11/06 03:48:54;;;;;;;93.90;20.60;;;;;;;;;;5057632;28;20989;-92
2021/11/06 03:51:21;;;;;;;81.20;20.53;;;;;;;;;;5056579;28;20458;-93
2021/11/06 03:53:48;;;;;;;82.27;21.20;;;;;;;;;;5056833;28;20445;-93
2021/11/06 03:56:14;;;;;;;87.60;21.77;;;;;;;;;;5056000;28;20860;-93
2021/11/06 03:58:41;;;;;;;86.77;21.13;;;;;;;;;;5056731;28;20489;-93
2021/11/06 04:01:07;;;;;;;90.40;22.40;;;;;;;;;;5056550;28;20450;-93
2021/11/06 04:03:35;;;;;;;92.83;21.17;;;;;;;;;;5059768;28;20442;-95
2021/11/06 04:06:03;;;;;;;87.97;20.87;;;;;;;;;;5062603;28;20450;-96
2021/11/06 04:08:29;;;;;;;80.63;19.93;;;;;;;;;;5062536;28;20491;-96
2021/11/06 04:10:56;;;;;;;84.63;20.03;;;;;;;;;;5061318;28;20440;-95
2021/11/06 04:13:22;;;;;;;85.00;20.80;;;;;;;;;;5061910;28;20511;-94
2021/11/06 04:15:49;;;;;;;87.87;19.87;;;;;;;;;;5060724;28;20487;-96
2021/11/06 04:18:15;;;;;;;85.67;20.40;;;;;;;;;;5059684;28;20516;-95
2021/11/06 04:20:44;;;;;;;85.30;20.40;;;;;;;;;;5060582;28;20473;-94
2021/11/06 04:23:10;;;;;;;85.33;21.40;;;;;;;;;;5060973;28;20461;-95
2021/11/06 04:25:37;;;;;;;85.30;20.80;;;;;;;;;;5061156;28;20446;-95
2021/11/06 04:28:04;;;;;;;82.90;20.07;;;;;;;;;;5061621;28;20465;-94
2021/11/06 04:30:30;;;;;;;88.43;20.57;;;;;;;;;;5060654;28;20446;-95
2021/11/06 04:32:57;;;;;;;83.67;19.50;;;;;;;;;;5060484;28;20450;-96
2021/11/06 04:35:24;;;;;;;83.13;20.70;;;;;;;;;;5062818;28;20454;-96
2021/11/06 04:37:52;;;;;;;84.00;20.77;;;;;;;;;;5062443;28;20599;-96
2021/11/06 04:40:19;;;;;;;87.77;19.33;;;;;;;;;;5063030;28;20440;-96
2021/11/06 04:42:46;;;;;;;88.43;20.80;;;;;;;;;;5062380;28;20441;-96
2021/11/06 04:45:12;;;;;;;92.50;21.70;;;;;;;;;;5065305;28;20441;-96
2021/11/06 04:47:39;;;;;;;84.97;20.47;;;;;;;;;;5061301;28;20461;-96
2021/11/06 04:50:06;;;;;;;87.40;21.20;;;;;;;;;;5060687;28;20436;-96
2021/11/06 04:52:33;;;;;;;91.10;21.07;;;;;;;;;;5060362;28;20518;-95
2021/11/06 04:55:01;;;;;;;91.20;21.20;;;;;;;;;;5061024;28;20457;-93
2021/11/06 04:57:28;;;;;;;85.40;20.33;;;;;;;;;;5060654;28;20453;-96
2021/11/06 04:59:54;;;;;;;83.87;20.50;;;;;;;;;;5061267;28;20445;-96
2021/11/06 05:02:21;;;;;;;83.30;22.07;;;;;;;;;;5060204;28;20464;-93
2021/11/06 05:04:48;;;;;;;89.37;21.43;;;;;;;;;;5060606;28;20450;-92
2021/11/06 05:07:15;;;;;;;85.00;20.17;;;;;;;;;;5060542;28;20599;-93
2021/11/06 05:09:43;;;;;;;87.53;21.30;;;;;;;;;;5060647;28;21016;-92
2021/11/06 05:12:12;;;;;;;87.37;21.30;;;;;;;;;;5059361;28;20452;-91
2021/11/06 05:14:38;;;;;;;83.93;20.60;;;;;;;;;;5059618;28;20524;-92
2021/11/06 05:17:05;;;;;;;86.70;20.30;;;;;;;;;;5059834;28;20446;-92
2021/11/06 05:19:32;;;;;;;88.57;21.60;;;;;;;;;;5059794;28;20552;-92
2021/11/06 05:21:58;;;;;;;90.27;20.80;;;;;;;;;;5060058;28;20541;-91
2021/11/06 05:24:25;;;;;;;88.83;21.17;;;;;;;;;;5060251;28;20463;-92
2021/11/06 05:26:51;;;;;;;96.07;24.80;;;;;;;;;;5059368;28;20517;-92
2021/11/06 05:29:20;;;;;;;91.30;22.70;;;;;;;;;;5059406;28;21073;-93
2021/11/06 05:31:46;;;;;;;93.63;23.47;;;;;;;;;;5060455;28;20439;-93
2021/11/06 05:34:13;;;;;;;94.60;23.47;;;;;;;;;;5060120;28;21076;-93
2021/11/06 05:36:39;;;;;;;97.27;26.27;;;;;;;;;;5060134;28;20461;-94
2021/11/06 05:39:06;;;;;;;94.10;23.73;;;;;;;;;;5060260;28;20488;-94
2021/11/06 05:41:32;;;;;;;95.00;23.73;;;;;;;;;;5058106;28;20442;-94
2021/11/06 05:43:59;;;;;;;102.10;23.70;;;;;;;;;;5057211;28;20438;-94
2021/11/06 05:46:27;;;;;;;91.70;24.00;;;;;;;;;;5058237;28;20442;-94
2021/11/06 05:48:54;;;;;;;97.60;24.47;;;;;;;;;;5058353;28;20450;-94
2021/11/06 05:51:20;;;;;;;86.63;23.27;;;;;;;;;;5058914;28;20450;-94
2021/11/06 05:53:46;;;;;;;90.00;23.50;;;;;;;;;;5059008;28;20987;-96
2021/11/06 05:56:14;;;;;;;92.90;24.10;;;;;;;;;;5059887;28;20447;-94
2021/11/06 05:58:41;;;;;;;92.87;23.93;;;;;;;;;;5059628;28;21008;-96
2021/11/06 06:01:08;;;;;;;97.10;25.17;;;;;;;;;;5059453;28;20450;-96
2021/11/06 06:03:35;;;;;;;91.20;26.07;;;;;;;;;;5059035;28;20532;-94
2021/11/06 06:06:02;;;;;;;95.87;24.90;;;;;;;;;;5059190;28;21026;-95
2021/11/06 06:08:29;;;;;;;92.47;25.10;;;;;;;;;;5057900;28;20491;-96
2021/11/06 06:10:56;;;;;;;89.97;26.23;;;;;;;;;;5057992;28;20471;-95
2021/11/06 06:13:22;;;;;;;94.60;25.47;;;;;;;;;;5057003;28;20449;-96
2021/11/06 06:15:49;;;;;;;108.60;24.97;;;;;;;;;;5056516;28;20472;-96
2021/11/06 06:18:15;;;;;;;90.33;24.83;;;;;;;;;;5058172;28;20481;-96
2021/11/06 06:20:43;;;;;;;94.37;25.83;;;;;;;;;;5059294;28;20468;-96
2021/11/06 06:23:10;;;;;;;94.17;23.67;;;;;;;;;;5065479;28;20450;-96
2021/11/06 06:25:37;;;;;;;94.47;23.87;;;;;;;;;;5060055;28;20849;-96
2021/11/06 06:28:05;;;;;;;91.57;23.40;;;;;;;;;;5059092;28;20457;-96
2021/11/06 06:30:33;;;;;;;96.17;24.80;;;;;;;;;;5063875;28;20557;-94
2021/11/06 06:32:59;;;;;;;90.00;23.17;;;;;;;;;;5058204;28;20453;-95
2021/11/06 06:35:28;;;;;;;88.30;22.50;;;;;;;;;;5058567;28;20511;-95
2021/11/06 06:37:57;;;;;;;92.63;24.73;;;;;;;;;;5058353;28;20441;-95
2021/11/06 06:40:23;;;;;;;95.80;25.43;;;;;;;;;;5057676;28;20450;-95
2021/11/06 06:42:50;;;;;;;93.17;23.50;;;;;;;;;;5181116;22;20508;-95
2021/11/06 06:45:17;;;;;;;88.77;23.10;;;;;;;;;;5072291;28;20445;-94
2021/11/06 06:47:43;;;;;;;91.27;24.10;;;;;;;;;;5074960;28;20449;-95
2021/11/06 06:50:10;;;;;;;92.50;24.27;;;;;;;;;;5075409;28;20841;-94
2021/11/06 06:52:37;;;;;;;96.50;23.53;;;;;;;;;;5077436;28;20445;-94
2021/11/06 06:55:05;;;;;;;89.67;24.57;;;;;;;;;;5078375;28;20441;-96
2021/11/06 06:57:31;;;;;;;92.83;23.70;;;;;;;;;;5078668;28;20510;-94
2021/11/06 06:59:58;;;;;;;95.67;23.93;;;;;;;;;;5079046;28;20523;-94
2021/11/06 07:02:24;;;;;;;92.83;22.70;;;;;;;;;;5077533;28;20467;-95
2021/11/06 07:04:51;;;;;;;87.67;23.20;;;;;;;;;;5077640;28;20483;-94
2021/11/06 07:07:17;;;;;;;90.23;21.83;;;;;;;;;;5076106;28;21011;-94
2021/11/06 07:09:44;;;;;;;94.20;23.20;;;;;;;;;;5076508;28;20445;-94
2021/11/06 07:12:12;;;;;;;82.10;21.10;;;;;;;;;;5076767;28;20445;-95
2021/11/06 07:14:38;;;;;;;91.50;22.23;;;;;;;;;;5077757;28;20461;-96
2021/11/06 07:17:05;;;;;;;87.27;20.97;;;;;;;;;;5072731;28;20514;-94
2021/11/06 07:19:31;;;;;;;91.07;22.47;;;;;;;;;;5077286;28;20516;-94
2021/11/06 07:21:58;;;;;;;87.00;21.93;;;;;;;;;;5075188;28;20495;-95
2021/11/06 07:24:25;;;;;;;97.40;22.17;;;;;;;;;;5074898;28;20457;-94
2021/11/06 07:26:51;;;;;;;91.60;20.57;;;;;;;;;;5075246;28;20479;-94
2021/11/06 07:29:19;;;;;;;81.63;20.67;;;;;;;;;;5074746;28;20477;-94
2021/11/06 07:31:45;;;;;;;87.67;21.30;;;;;;;;;;5074963;28;20475;-93
2021/11/06 07:34:12;;;;;;;90.93;25.33;;;;;;;;;;5076774;28;20459;-96
2021/11/06 07:36:38;;;;;;;91.03;27.63;;;;;;;;;;5076461;28;20482;-95
2021/11/06 07:39:05;;;;;;;101.07;28.60;;;;;;;;;;5079805;28;20552;-94
2021/11/06 07:41:31;;;;;;;94.57;30.17;;;;;;;;;;5079826;28;20444;-93
2021/11/06 07:43:58;;;;;;;96.93;28.67;;;;;;;;;;5077399;28;20526;-95
2021/11/06 07:46:26;;;;;;;98.80;29.40;;;;;;;;;;5077107;28;20459;-95
2021/11/06 07:48:52;;;;;;;97.37;28.87;;;;;;;;;;5080900;28;20895;-94
2021/11/06 07:51:19;;;;;;;96.20;28.20;;;;;;;;;;5081957;28;20446;-94
2021/11/06 07:53:46;;;;;;;94.17;27.27;;;;;;;;;;5081836;28;20468;-93
2021/11/06 07:56:13;;;;;;;93.60;31.30;;;;;;;;;;5080209;28;20453;-94
2021/11/06 07:58:39;;;;;;;94.00;29.77;;;;;;;;;;5076685;28;20491;-94
2021/11/06 08:01:06;;;;;;;101.17;32.80;;;;;;;;;;5080531;28;20445;-95
2021/11/06 08:03:34;;;;;;;119.47;40.60;;;;;;;;;;5079944;28;20445;-93
2021/11/06 08:06:01;;;;;;;115.43;41.60;;;;;;;;;;5082549;28;21165;-93
2021/11/06 08:08:27;;;;;;;118.77;39.30;;;;;;;;;;5081635;28;20527;-93
2021/11/06 08:10:54;;;;;;;103.53;34.73;;;;;;;;;;5080547;28;20576;-94
2021/11/06 08:13:20;;;;;;;98.73;32.27;;;;;;;;;;5079796;28;20460;-94
2021/11/06 08:15:47;;;;;;;99.00;30.70;;;;;;;;;;5080223;28;20445;-94
2021/11/06 08:18:13;;;;;;;98.93;30.80;;;;;;;;;;5079658;28;20438;-94
2021/11/06 08:20:41;;;;;;;96.67;29.67;;;;;;;;;;5080656;28;20485;-93
2021/11/06 08:23:08;;;;;;;101.10;26.63;;;;;;;;;;5079869;28;20438;-94
2021/11/06 08:25:35;;;;;;;92.07;27.70;;;;;;;;;;5080058;28;20438;-93
2021/11/06 08:28:01;;;;;;;102.40;30.33;;;;;;;;;;5078234;28;20457;-95
2021/11/06 08:30:28;;;;;;;104.43;27.63;;;;;;;;;;5074455;28;20502;-94
2021/11/06 08:32:55;;;;;;;92.17;27.77;;;;;;;;;;5078966;28;21044;-95
2021/11/06 08:35:25;;;;;;;94.27;26.97;;;;;;;;;;5069532;22;20482;-95
2021/11/06 08:37:53;;;;;;;94.23;26.77;;;;;;;;;;5056989;28;20553;-95
2021/11/06 08:40:20;;;;;;;91.00;25.83;;;;;;;;;;5055622;28;20591;-94
2021/11/06 08:42:46;;;;;;;100.23;30.13;;;;;;;;;;5058543;28;20458;-94
2021/11/06 08:45:14;;;;;;;100.70;28.67;;;;;;;;;;5058042;28;20442;-95
2021/11/06 08:47:41;;;;;;;96.63;24.00;;;;;;;;;;5059076;28;20434;-95
2021/11/06 08:50:09;;;;;;;92.07;22.70;;;;;;;;;;5069939;28;20456;-96
2021/11/06 08:52:36;;;;;;;87.10;23.30;;;;;;;;;;5062630;28;20453;-95
2021/11/06 08:55:05;;;;;;;89.00;21.20;;;;;;;;;;5059807;28;20549;-95
2021/11/06 08:57:31;;;;;;;83.90;19.80;;;;;;;;;;5058717;28;20457;-94
2021/11/06 09:00:05;;;;;;;89.03;19.87;;;;;;;;;;5059136;28;20522;-96
2021/11/06 09:02:31;;;;;;;92.27;20.63;;;;;;;;;;5058419;28;20534;-94
2021/11/06 09:04:58;;;;;;;88.50;21.40;;;;;;;;;;5055171;28;20450;-94
2021/11/06 09:07:24;;;;;;;94.97;20.53;;;;;;;;;;5059564;28;20450;-94
2021/11/06 09:09:51;;;;;;;81.50;20.50;;;;;;;;;;5059811;28;20475;-93
2021/11/06 09:12:19;;;;;;;89.67;20.70;;;;;;;;;;5058646;28;20974;-93
2021/11/06 09:14:46;;;;;;;91.00;20.73;;;;;;;;;;5058829;28;20900;-94
2021/11/06 09:17:12;;;;;;;86.37;20.20;;;;;;;;;;5059337;28;20464;-94
2021/11/06 09:19:39;;;;;;;88.37;21.57;;;;;;;;;;5058187;28;20567;-93
2021/11/06 09:22:05;;;;;;;83.83;19.80;;;;;;;;;;5057716;28;20430;-93
2021/11/06 09:24:32;;;;;;;86.77;21.40;;;;;;;;;;5058340;28;20484;-95
2021/11/06 09:26:58;;;;;;;89.40;21.40;;;;;;;;;;5058627;28;20438;-94
2021/11/06 09:29:28;;;;;;;89.23;21.53;;;;;;;;;;5059309;28;20442;-93
2021/11/06 09:31:54;;;;;;;98.83;21.87;;;;;;;;;;5057684;28;20465;-93
2021/11/06 09:34:21;;;;;;;81.80;21.03;;;;;;;;;;5058444;28;20504;-93
2021/11/06 09:36:47;;;;;;;91.00;21.37;;;;;;;;;;5059177;28;20427;-94
2021/11/06 09:39:17;;;;;;;98.17;21.97;;;;;;;;;;5059064;28;20581;-94
2021/11/06 09:41:44;;;;;;;91.50;19.47;;;;;;;;;;5060393;28;20441;-96
2021/11/06 09:44:11;;;;;;;87.60;20.07;;;;;;;;;;5061253;28;21785;-95
2021/11/06 09:46:39;;;;;;;92.50;21.83;;;;;;;;;;5059205;28;20493;-94
2021/11/06 09:49:06;;;;;;;92.00;21.27;;;;;;;;;;5058670;28;20565;-95
2021/11/06 09:51:32;;;;;;;91.00;22.17;;;;;;;;;;5059113;28;20442;-94
2021/11/06 09:53:59;;;;;;;90.73;21.23;;;;;;;;;;5058486;28;20446;-95
2021/11/06 09:56:26;;;;;;;82.77;21.30;;;;;;;;;;5059462;28;20442;-94
2021/11/06 09:58:54;;;;;;;91.23;21.23;;;;;;;;;;5058773;28;20436;-95
2021/11/06 10:01:21;;;;;;;87.47;21.27;;;;;;;;;;5058205;28;20456;-95
2021/11/06 10:03:49;;;;;;;85.70;20.67;;;;;;;;;;5058505;28;20475;-93
2021/11/06 10:06:19;;;;;;;84.90;20.57;;;;;;;;;;5055879;28;20888;-94
2021/11/06 10:08:46;;;;;;;91.90;22.23;;;;;;;;;;5058941;28;20444;-94
2021/11/06 10:11:13;;;;;;;83.57;20.47;;;;;;;;;;5059212;28;20448;-94
2021/11/06 10:13:46;;;;;;;89.43;21.17;;;;;;;;;;5057680;28;20471;-94
2021/11/06 10:16:12;;;;;;;93.07;20.93;;;;;;;;;;5058990;28;20445;-93
2021/11/06 10:18:38;;;;;;;88.03;21.23;;;;;;;;;;5059631;28;20460;-92
2021/11/06 10:21:07;;;;;;;95.20;23.43;;;;;;;;;;5058938;28;20548;-95
2021/11/06 10:23:36;;;;;;;94.60;23.30;;;;;;;;;;5059360;28;21498;-90
2021/11/06 10:26:13;;;;;;;96.30;26.40;;;;;;;;;;5058271;28;20489;-93
2021/11/06 10:28:40;;;;;;;107.93;28.47;;;;;;;;;;5056838;28;20441;-92
2021/11/06 10:31:07;;;;;;;111.87;33.97;;;;;;;;;;5057160;28;20472;-91
2021/11/06 10:33:42;;;;;;;102.90;30.53;;;;;;;;;;5051036;28;20455;-93
2021/11/06 10:36:17;;;;;;;101.10;28.47;;;;;;;;;;5051645;28;20472;-94
2021/11/06 10:38:58;;;;;;;93.93;26.80;;;;;;;;;;5058455;28;20859;-91
2021/11/06 10:41:27;;;;;;;92.60;25.33;;;;;;;;;;5057709;28;20534;-93
2021/11/06 10:43:55;;;;;;;95.87;26.97;;;;;;;;;;5053949;28;20501;-92
2021/11/06 10:46:25;;;;;;;94.87;26.50;;;;;;;;;;5057667;28;20449;-92
2021/11/06 10:48:53;;;;;;;89.93;24.57;;;;;;;;;;5059109;28;20437;-94
2021/11/06 10:51:20;;;;;;;98.50;27.20;;;;;;;;;;5057746;28;20527;-91
2021/11/06 10:53:49;;;;;;;91.07;24.47;;;;;;;;;;5057922;28;20449;-94
2021/11/06 10:56:23;;;;;;;92.60;23.93;;;;;;;;;;5058272;28;20453;-93
2021/11/06 10:58:51;;;;;;;97.57;25.17;;;;;;;;;;5057208;28;20448;-94
2021/11/06 11:01:18;;;;;;;91.13;24.60;;;;;;;;;;5052779;28;20992;-93
2021/11/06 11:03:45;;;;;;;92.23;24.00;;;;;;;;;;5057425;28;20492;-91
2021/11/06 11:06:12;;;;;;;84.70;23.40;;;;;;;;;;5053890;28;20599;-92
2021/11/06 11:08:44;;;;;;;91.13;24.70;;;;;;;;;;5116087;22;20514;-93
2021/11/06 11:11:12;;;;;;;99.60;25.77;;;;;;;;;;5109191;28;21004;-94
2021/11/06 11:13:47;;;;;;;95.70;23.87;;;;;;;;;;5111680;28;20461;-92
2021/11/06 11:16:15;;;;;;;96.77;24.40;;;;;;;;;;5112118;28;20472;-93
2021/11/06 11:18:42;;;;;;;106.23;25.20;;;;;;;;;;5109865;28;20467;-95
2021/11/06 11:21:10;;;;;;;96.37;24.17;;;;;;;;;;5108666;28;20483;-93
2021/11/06 11:23:36;;;;;;;84.23;23.10;;;;;;;;;;5109189;28;20467;-95
2021/11/06 11:26:04;;;;;;;90.07;23.80;;;;;;;;;;5110208;28;20957;-94
2021/11/06 11:28:31;;;;;;;92.97;22.63;;;;;;;;;;5108294;28;20443;-93
2021/11/06 11:30:58;;;;;;;86.83;24.87;;;;;;;;;;5106955;28;20443;-90
2021/11/06 11:33:24;;;;;;;91.87;24.47;;;;;;;;;;5107796;28;20497;-92
2021/11/06 11:35:51;;;;;;;88.27;23.67;;;;;;;;;;5110883;28;20437;-89
2021/11/06 11:38:19;;;;;;;93.37;25.10;;;;;;;;;;5110293;28;20529;-91
2021/11/06 11:40:49;;;;;;;90.80;22.77;;;;;;;;;;5112507;28;20486;-91
2021/11/06 11:43:20;;;;;;;86.23;21.00;;;;;;;;;;5111804;28;20440;-94
2021/11/06 11:45:49;;;;;;;91.97;20.90;;;;;;;;;;5112670;28;20531;-94
2021/11/06 11:48:19;;;;;;;87.47;21.80;;;;;;;;;;5111914;28;20468;-93
2021/11/06 11:50:48;;;;;;;89.50;22.70;;;;;;;;;;5108109;28;20435;-93
2021/11/06 11:53:22;;;;;;;94.23;22.70;;;;;;;;;;5112026;28;20444;-90
2021/11/06 11:55:51;;;;;;;85.57;22.27;;;;;;;;;;5112812;28;20479;-93
2021/11/06 11:58:22;;;;;;;82.43;20.70;;;;;;;;;;5111136;28;20474;-92
2021/11/06 12:00:50;;;;;;;87.60;19.40;;;;;;;;;;5112065;28;20498;-93
2021/11/06 12:03:27;;;;;;;94.93;21.47;;;;;;;;;;5112452;28;20470;-92
2021/11/06 12:05:54;;;;;;;88.60;20.47;;;;;;;;;;5111704;28;20943;-92
2021/11/06 12:08:36;;;;;;;84.17;20.70;;;;;;;;;;5109864;28;21009;-93
2021/11/06 12:11:13;;;;;;;88.83;20.33;;;;;;;;;;5109795;28;20448;-93
2021/11/06 12:13:41;;;;;;;88.13;21.77;;;;;;;;;;5111657;28;20432;-93
2021/11/06 12:16:09;;;;;;;92.77;21.87;;;;;;;;;;5113732;28;20442;-92
2021/11/06 12:18:55;;;;;;;82.80;21.33;;;;;;;;;;5112822;28;20470;-92
2021/11/06 12:21:26;;;;;;;89.20;21.40;;;;;;;;;;5100488;28;20483;-92
2021/11/06 12:23:54;;;;;;;83.40;21.30;;;;;;;;;;5110416;28;20486;-93
2021/11/06 12:26:21;;;;;;;85.60;21.40;;;;;;;;;;5110898;28;20432;-94
2021/11/06 12:28:49;;;;;;;88.43;21.87;;;;;;;;;;5109958;28;20443;-92
2021/11/06 12:31:26;;;;;;;91.77;21.57;;;;;;;;;;5111087;28;20524;-92
2021/11/06 12:33:53;;;;;;;86.07;21.07;;;;;;;;;;5111033;28;20921;-91
2021/11/06 12:36:20;;;;;;;91.00;22.27;;;;;;;;;;5111048;28;20501;-92
2021/11/06 12:38:47;;;;;;;84.57;21.30;;;;;;;;;;5108316;28;20495;-93
2021/11/06 12:41:13;;;;;;;88.30;20.43;;;;;;;;;;5107884;28;20509;-93
2021/11/06 12:43:50;;;;;;;79.37;20.97;;;;;;;;;;5109740;28;20429;-93
2021/11/06 12:46:20;;;;;;;84.23;19.90;;;;;;;;;;5107191;28;20429;-91
2021/11/06 12:48:47;;;;;;;83.87;20.10;;;;;;;;;;5111378;28;20461;-92
2021/11/06 12:51:15;;;;;;;84.17;20.90;;;;;;;;;;5110448;28;20433;-91
2021/11/06 12:53:42;;;;;;;90.47;20.77;;;;;;;;;;5111317;28;20456;-93
2021/11/06 12:56:10;;;;;;;89.23;20.70;;;;;;;;;;5110374;28;20467;-92
2021/11/06 12:58:37;;;;;;;82.97;19.73;;;;;;;;;;5107175;28;20440;-93
2021/11/06 13:01:18;;;;;;;83.67;20.23;;;;;;;;;;5107838;28;20510;-93
2021/11/06 13:03:45;;;;;;;90.90;22.17;;;;;;;;;;5109846;28;21008;-93
2021/11/06 13:06:23;;;;;;;96.13;22.10;;;;;;;;;;5111438;28;20437;-91
2021/11/06 13:09:17;;;;;;;84.63;22.00;;;;;;;;;;5105349;28;20572;-92
2021/11/06 13:12:01;;;;;;;89.80;23.10;;;;;;;;;;5108724;28;20440;-91
2021/11/06 13:14:32;;;;;;;87.13;22.00;;;;;;;;;;5107615;28;20439;-95
2021/11/06 13:17:04;;;;;;;92.17;21.40;;;;;;;;;;5109713;28;20473;-92
2021/11/06 13:19:51;;;;;;;92.30;20.90;;;;;;;;;;5109072;28;20444;-92
2021/11/06 13:22:33;;;;;;;87.43;20.83;;;;;;;;;;5103417;28;20483;-91
2021/11/06 13:25:00;;;;;;;83.80;19.27;;;;;;;;;;5109744;28;20469;-91
2021/11/06 13:27:42;;;;;;;85.10;20.80;;;;;;;;;;5108149;28;20443;-92
2021/11/06 13:30:13;;;;;;;86.13;20.20;;;;;;;;;;5108991;28;20435;-92
2021/11/06 13:32:51;;;;;;;89.53;22.30;;;;;;;;;;5103876;28;20428;-92
2021/11/06 13:35:20;;;;;;;87.40;22.30;;;;;;;;;;5101883;28;20440;-93
2021/11/06 13:37:47;;;;;;;86.77;21.53;;;;;;;;;;5102886;28;20444;-92
2021/11/06 15:27:38;;;;;;;98.57;26.93;;;;;;;;;;6246874;22;1389864;-93
2021/11/06 15:30:05;;;;;;;101.63;27.60;;;;;;;;;;6300537;22;20185;-95
2021/11/06 15:32:31;;;;;;;97.27;28.43;;;;;;;;;;6301927;22;20861;-94
2021/11/06 15:34:58;;;;;;;98.13;27.60;;;;;;;;;;6293616;22;20423;-93
2021/11/06 15:37:24;;;;;;;94.07;25.97;;;;;;;;;;6293103;22;20412;-94
2021/11/06 15:39:51;;;;;;;91.60;25.97;;;;;;;;;;6293331;22;20434;-93
2021/11/06 15:42:17;;;;;;;95.13;24.70;;;;;;;;;;6294116;22;20444;-93
2021/11/06 15:44:45;;;;;;;97.57;25.20;;;;;;;;;;6296449;22;20435;-94
2021/11/06 15:47:12;;;;;;;94.23;24.10;;;;;;;;;;6296463;22;20405;-94
2021/11/06 15:49:40;;;;;;;100.73;26.00;;;;;;;;;;6294892;22;20404;-93
2021/11/06 15:52:09;;;;;;;143.43;47.47;;;;;;;;;;6293279;22;20396;-94
2021/11/06 15:54:35;;;;;;;153.10;52.07;;;;;;;;;;6288724;22;20435;-94
2021/11/06 15:57:03;;;;;;;185.03;60.90;;;;;;;;;;6294928;22;20415;-96
2021/11/06 15:59:29;;;;;;;167.57;59.47;;;;;;;;;;6294016;22;20954;-94
2021/11/06 16:01:57;;;;;;;139.83;47.07;;;;;;;;;;6293650;22;21301;-93
2021/11/06 16:04:24;;;;;;;109.13;31.33;;;;;;;;;;6294253;22;20431;-92
2021/11/06 16:06:51;;;;;;;121.67;34.80;;;;;;;;;;6295636;22;20412;-93